Time,TemperatureF,DewpointF,PressureIn,WindDirection,WindDirectionDegrees,WindSpeedMPH,WindSpeedGustMPH,Humidity,HourlyPrecipIn,Conditions,Clouds,dailyrainin,SoftwareType,DateUTC
2013-10-27 00:05:00,43.2,43.0,30.16,West,260,0.0,0.0,98,0.00,,,0.00,weatherlink.com 1.10,2013-10-27 04:05:00,
2013-10-27 00:20:00,43.3,43.0,30.16,West,260,0.0,0.0,98,0.00,,,0.00,weatherlink.com 1.10,2013-10-27 04:20:00,
2013-10-27 00:35:00,43.5,43.0,30.16,West,260,0.0,0.0,98,0.00,,,0.00,weatherlink.com 1.10,2013-10-27 04:35:00,
2013-10-27 00:50:00,43.5,43.0,30.16,West,260,0.0,0.0,98,0.00,,,0.00,weatherlink.com 1.10,2013-10-27 04:50:00,
2013-10-27 01:06:00,43.2,43.0,30.16,West,260,0.0,0.0,98,0.00,,,0.00,weatherlink.com 1.10,2013-10-27 05:06:00,
2013-10-27 01:20:00,43.1,43.0,30.15,West,260,0.0,0.0,98,0.00,,,0.00,weatherlink.com 1.10,2013-10-27 05:20:00,
2013-10-27 01:35:00,43.2,43.0,30.15,West,260,0.0,0.0,98,0.00,,,0.00,weatherlink.com 1.10,2013-10-27 05:35:00,
2013-10-27 01:50:00,43.4,43.0,30.15,West,260,0.0,0.0,98,0.00,,,0.00,weatherlink.com 1.10,2013-10-27 05:50:00,
2013-10-27 02:05:00,43.3,43.0,30.14,West,260,0.0,0.0,98,0.00,,,0.00,weatherlink.com 1.10,2013-10-27 06:05:00,
2013-10-27 02:20:00,43.2,43.0,30.14,West,260,0.0,0.0,98,0.00,,,0.00,weatherlink.com 1.10,2013-10-27 06:20:00,
2013-10-27 02:35:00,43.0,43.0,30.13,West,260,0.0,0.0,98,0.00,,,0.00,weatherlink.com 1.10,2013-10-27 06:35:00,
2013-10-27 02:50:00,42.8,42.0,30.13,West,260,0.0,0.0,98,0.00,,,0.00,weatherlink.com 1.10,2013-10-27 06:50:00,
2013-10-27 03:05:00,42.6,42.0,30.13,West,260,0.0,0.0,98,0.00,,,0.00,weatherlink.com 1.10,2013-10-27 07:05:00,
2013-10-27 03:21:00,42.4,42.0,30.12,West,260,0.0,0.0,98,0.00,,,0.00,weatherlink.com 1.10,2013-10-27 07:21:00,
2013-10-27 03:36:00,42.5,42.0,30.11,West,260,0.0,0.0,98,0.00,,,0.00,weatherlink.com 1.10,2013-10-27 07:36:00,
2013-10-27 03:51:00,42.4,42.0,30.11,West,260,0.0,0.0,98,0.00,,,0.00,weatherlink.com 1.10,2013-10-27 07:51:00,
2013-10-27 04:06:00,42.2,42.0,30.11,West,260,0.0,0.0,98,0.00,,,0.00,weatherlink.com 1.10,2013-10-27 08:06:00,
2013-10-27 04:21:00,41.9,41.0,30.10,West,260,0.0,0.0,98,0.00,,,0.00,weatherlink.com 1.10,2013-10-27 08:21:00,
2013-10-27 04:36:00,41.8,41.0,30.10,West,260,0.0,0.0,97,0.00,,,0.00,weatherlink.com 1.10,2013-10-27 08:36:00,
2013-10-27 04:51:00,41.7,41.0,30.11,West,260,0.0,0.0,97,0.00,,,0.00,weatherlink.com 1.10,2013-10-27 08:51:00,
2013-10-27 05:06:00,41.2,40.0,30.11,West,260,0.0,0.0,97,0.00,,,0.00,weatherlink.com 1.10,2013-10-27 09:06:00,
2013-10-27 05:21:00,41.0,40.0,30.11,West,260,0.0,0.0,97,0.00,,,0.00,weatherlink.com 1.10,2013-10-27 09:21:00,
2013-10-27 05:36:00,40.9,40.0,30.11,West,260,0.0,0.0,97,0.00,,,0.00,weatherlink.com 1.10,2013-10-27 09:36:00,
2013-10-27 05:51:00,40.8,40.0,30.11,West,260,0.0,0.0,98,0.00,,,0.00,weatherlink.com 1.10,2013-10-27 09:51:00,
2013-10-27 06:06:00,40.9,40.0,30.11,West,260,0.0,0.0,98,0.00,,,0.00,weatherlink.com 1.10,2013-10-27 10:06:00,
2013-10-27 06:21:00,40.8,40.0,30.12,West,260,0.0,0.0,98,0.00,,,0.00,weatherlink.com 1.10,2013-10-27 10:21:00,
2013-10-27 06:36:00,40.5,40.0,30.12,West,260,0.0,0.0,98,0.00,,,0.00,weatherlink.com 1.10,2013-10-27 10:36:00,
2013-10-27 06:51:00,40.2,40.0,30.12,West,260,0.0,0.0,98,0.00,,,0.00,weatherlink.com 1.10,2013-10-27 10:51:00,
2013-10-27 07:06:00,40.2,40.0,30.12,West,260,0.0,0.0,98,0.00,,,0.00,weatherlink.com 1.10,2013-10-27 11:06:00,
2013-10-27 07:21:00,40.2,40.0,30.12,West,260,0.0,0.0,98,0.00,,,0.00,weatherlink.com 1.10,2013-10-27 11:21:00,
2013-10-27 07:36:00,40.2,40.0,30.13,West,260,0.0,0.0,98,0.00,,,0.00,weatherlink.com 1.10,2013-10-27 11:36:00,
2013-10-27 07:51:00,40.2,40.0,30.13,West,260,0.0,0.0,98,0.00,,,0.00,weatherlink.com 1.10,2013-10-27 11:51:00,
2013-10-27 08:06:00,40.5,40.0,30.13,West,260,0.0,0.0,98,0.00,,,0.00,weatherlink.com 1.10,2013-10-27 12:06:00,
2013-10-27 08:21:00,40.9,40.0,30.14,West,260,0.0,0.0,98,0.00,,,0.00,weatherlink.com 1.10,2013-10-27 12:21:00,
2013-10-27 08:36:00,41.5,41.0,30.14,West,260,0.0,0.0,98,0.00,,,0.00,weatherlink.com 1.10,2013-10-27 12:36:00,
2013-10-27 08:51:00,42.4,42.0,30.15,West,260,0.0,0.0,98,0.00,,,0.00,weatherlink.com 1.10,2013-10-27 12:51:00,
2013-10-27 09:06:00,43.9,43.0,30.16,West,260,0.0,0.0,98,0.00,,,0.00,weatherlink.com 1.10,2013-10-27 13:06:00,
2013-10-27 09:21:00,47.0,46.0,30.16,West,260,0.0,0.0,97,0.00,,,0.00,weatherlink.com 1.10,2013-10-27 13:21:00,
2013-10-27 09:36:00,51.7,49.0,30.16,West,261,0.0,1.0,90,0.00,,,0.00,weatherlink.com 1.10,2013-10-27 13:36:00,
2013-10-27 09:51:00,54.9,52.0,30.16,West,264,0.0,1.0,88,0.00,,,0.00,weatherlink.com 1.10,2013-10-27 13:51:00,
2013-10-27 10:06:00,57.0,48.0,30.16,WSW,245,0.0,1.0,72,0.00,,,0.00,weatherlink.com 1.10,2013-10-27 14:06:00,
2013-10-27 10:21:00,58.9,49.0,30.16,West,273,0.0,1.0,70,0.00,,,0.00,weatherlink.com 1.10,2013-10-27 14:21:00,
2013-10-27 10:36:00,60.7,48.0,30.16,WSW,250,0.0,1.0,64,0.00,,,0.00,weatherlink.com 1.10,2013-10-27 14:36:00,
2013-10-27 10:51:00,61.6,48.0,30.16,WNW,284,0.0,1.0,61,0.00,,,0.00,weatherlink.com 1.10,2013-10-27 14:51:00,
2013-10-27 11:06:00,62.9,46.0,30.15,WSW,253,0.0,2.0,55,0.00,,,0.00,weatherlink.com 1.10,2013-10-27 15:06:00,
2013-10-27 11:22:00,64.2,47.0,30.15,WSW,257,0.0,1.0,54,0.00,,,0.00,weatherlink.com 1.10,2013-10-27 15:22:00,
2013-10-27 11:37:00,65.6,47.0,30.15,ESE,108,0.0,2.0,51,0.00,,,0.00,weatherlink.com 1.10,2013-10-27 15:37:00,
2013-10-27 11:52:00,66.3,47.0,30.15,NNE,27,0.0,1.0,50,0.00,,,0.00,weatherlink.com 1.10,2013-10-27 15:52:00,
2013-10-27 12:07:00,65.8,49.0,30.15,WSW,252,0.0,2.0,54,0.00,,,0.00,weatherlink.com 1.10,2013-10-27 16:07:00,
2013-10-27 12:22:00,66.4,49.0,30.14,WSW,253,1.0,1.0,54,0.00,,,0.00,weatherlink.com 1.10,2013-10-27 16:22:00,
2013-10-27 12:37:00,66.4,49.0,30.13,NNW,333,0.0,2.0,53,0.00,,,0.00,weatherlink.com 1.10,2013-10-27 16:37:00,
2013-10-27 12:52:00,66.6,50.0,30.13,ENE,64,2.0,4.0,55,0.00,,,0.00,weatherlink.com 1.10,2013-10-27 16:52:00,
2013-10-27 13:07:00,66.3,49.0,30.12,West,262,0.0,3.0,54,0.00,,,0.00,weatherlink.com 1.10,2013-10-27 17:07:00,
2013-10-27 13:22:00,66.2,49.0,30.12,SE,142,0.0,4.0,55,0.00,,,0.00,weatherlink.com 1.10,2013-10-27 17:22:00,
2013-10-27 13:37:00,66.6,51.0,30.11,West,269,0.0,3.0,58,0.00,,,0.00,weatherlink.com 1.10,2013-10-27 17:37:00,
2013-10-27 13:52:00,67.1,51.0,30.11,WSW,248,0.0,2.0,56,0.00,,,0.00,weatherlink.com 1.10,2013-10-27 17:52:00,
2013-10-27 14:07:00,67.2,52.0,30.10,WSW,254,0.0,3.0,58,0.00,,,0.00,weatherlink.com 1.10,2013-10-27 18:07:00,
2013-10-27 14:22:00,67.4,51.0,30.10,NW,314,1.0,2.0,57,0.00,,,0.00,weatherlink.com 1.10,2013-10-27 18:22:00,
2013-10-27 14:37:00,67.5,52.0,30.09,West,269,1.0,4.0,58,0.00,,,0.00,weatherlink.com 1.10,2013-10-27 18:37:00,
2013-10-27 14:52:00,67.7,53.0,30.09,NNE,23,2.0,2.0,60,0.00,,,0.00,weatherlink.com 1.10,2013-10-27 18:52:00,
2013-10-27 15:07:00,68.2,55.0,30.08,WNW,290,0.0,2.0,62,0.00,,,0.00,weatherlink.com 1.10,2013-10-27 19:07:00,
2013-10-27 15:22:00,68.7,53.0,30.08,NNW,329,0.0,2.0,58,0.00,,,0.00,weatherlink.com 1.10,2013-10-27 19:22:00,
2013-10-27 15:37:00,68.9,54.0,30.09,West,275,0.0,2.0,59,0.00,,,0.00,weatherlink.com 1.10,2013-10-27 19:37:00,
2013-10-27 15:52:00,68.8,56.0,30.09,West,271,0.0,2.0,63,0.00,,,0.00,weatherlink.com 1.10,2013-10-27 19:52:00,
2013-10-27 16:07:00,69.3,55.0,30.09,NNW,330,0.0,1.0,61,0.00,,,0.00,weatherlink.com 1.10,2013-10-27 20:07:00,
2013-10-27 16:22:00,70.4,55.0,30.09,WSW,250,1.0,2.0,58,0.00,,,0.00,weatherlink.com 1.10,2013-10-27 20:22:00,
2013-10-27 16:37:00,71.0,55.0,30.09,WSW,242,0.0,1.0,58,0.00,,,0.00,weatherlink.com 1.10,2013-10-27 20:37:00,
2013-10-27 16:52:00,71.5,55.0,30.08,WNW,294,0.0,3.0,57,0.00,,,0.00,weatherlink.com 1.10,2013-10-27 20:52:00,
2013-10-27 17:07:00,72.6,56.0,30.08,WSW,249,0.0,0.0,56,0.00,,,0.00,weatherlink.com 1.10,2013-10-27 21:07:00,
2013-10-27 17:22:00,73.3,57.0,30.09,West,275,0.0,0.0,57,0.00,,,0.00,weatherlink.com 1.10,2013-10-27 21:22:00,
2013-10-27 17:37:00,71.1,57.0,30.09,West,275,0.0,0.0,61,0.00,,,0.00,weatherlink.com 1.10,2013-10-27 21:37:00,
2013-10-27 17:52:00,68.5,58.0,30.09,West,275,0.0,0.0,70,0.00,,,0.00,weatherlink.com 1.10,2013-10-27 21:52:00,
2013-10-27 18:07:00,66.0,58.0,30.10,West,275,0.0,0.0,75,0.00,,,0.00,weatherlink.com 1.10,2013-10-27 22:07:00,
2013-10-27 18:22:00,63.9,58.0,30.10,West,275,0.0,0.0,80,0.00,,,0.00,weatherlink.com 1.10,2013-10-27 22:22:00,
2013-10-27 18:37:00,62.2,58.0,30.10,West,275,0.0,0.0,85,0.00,,,0.00,weatherlink.com 1.10,2013-10-27 22:37:00,
2013-10-27 18:52:00,60.8,57.0,30.11,West,275,0.0,0.0,87,0.00,,,0.00,weatherlink.com 1.10,2013-10-27 22:52:00,
2013-10-27 19:07:00,59.9,56.0,30.11,West,275,0.0,0.0,87,0.00,,,0.00,weatherlink.com 1.10,2013-10-27 23:07:00,
2013-10-27 19:22:00,59.1,56.0,30.11,West,275,0.0,0.0,90,0.00,,,0.00,weatherlink.com 1.10,2013-10-27 23:22:00,
2013-10-27 19:37:00,58.4,56.0,30.11,West,275,0.0,0.0,91,0.00,,,0.00,weatherlink.com 1.10,2013-10-27 23:37:00,
2013-10-27 19:52:00,57.5,55.0,30.12,West,275,0.0,0.0,92,0.00,,,0.00,weatherlink.com 1.10,2013-10-27 23:52:00,
2013-10-27 20:07:00,56.8,55.0,30.12,West,275,0.0,0.0,93,0.00,,,0.00,weatherlink.com 1.10,2013-10-28 00:07:00,
2013-10-27 20:22:00,56.2,55.0,30.12,West,275,0.0,0.0,94,0.00,,,0.00,weatherlink.com 1.10,2013-10-28 00:22:00,
2013-10-27 20:37:00,55.8,54.0,30.13,West,275,0.0,0.0,95,0.00,,,0.00,weatherlink.com 1.10,2013-10-28 00:37:00,
2013-10-27 20:52:00,55.1,54.0,30.13,West,275,0.0,0.0,95,0.00,,,0.00,weatherlink.com 1.10,2013-10-28 00:52:00,
2013-10-27 21:07:00,54.6,54.0,30.14,West,275,0.0,0.0,96,0.00,,,0.00,weatherlink.com 1.10,2013-10-28 01:07:00,
2013-10-27 21:22:00,54.1,53.0,30.13,West,275,0.0,0.0,96,0.00,,,0.00,weatherlink.com 1.10,2013-10-28 01:22:00,
2013-10-27 21:37:00,53.8,53.0,30.13,West,275,0.0,0.0,96,0.00,,,0.00,weatherlink.com 1.10,2013-10-28 01:37:00,
2013-10-27 21:52:00,53.4,53.0,30.14,West,275,0.0,0.0,97,0.00,,,0.00,weatherlink.com 1.10,2013-10-28 01:52:00,
2013-10-27 22:07:00,53.1,52.0,30.15,West,275,0.0,0.0,97,0.00,,,0.00,weatherlink.com 1.10,2013-10-28 02:07:00,
2013-10-27 22:22:00,52.9,52.0,30.15,West,275,0.0,0.0,97,0.00,,,0.00,weatherlink.com 1.10,2013-10-28 02:22:00,
2013-10-27 22:37:00,52.7,52.0,30.15,West,275,0.0,0.0,97,0.00,,,0.00,weatherlink.com 1.10,2013-10-28 02:37:00,
2013-10-27 22:52:00,52.5,52.0,30.15,West,275,0.0,0.0,98,0.00,,,0.00,weatherlink.com 1.10,2013-10-28 02:52:00,
2013-10-27 23:07:00,52.1,51.0,30.16,West,275,0.0,0.0,97,0.00,,,0.00,weatherlink.com 1.10,2013-10-28 03:07:00,
2013-10-27 23:22:00,51.9,51.0,30.16,West,275,0.0,0.0,98,0.00,,,0.00,weatherlink.com 1.10,2013-10-28 03:22:00,
2013-10-27 23:37:00,51.6,51.0,30.16,West,275,0.0,0.0,98,0.00,,,0.00,weatherlink.com 1.10,2013-10-28 03:37:00,
2013-10-27 23:52:00,51.4,51.0,30.16,West,275,0.0,0.0,98,0.00,,,0.00,weatherlink.com 1.10,2013-10-28 03:52:00,